createdAt,value
2019-02-17T00:00:03.006Z,40.18
2019-02-17T00:01:03.236Z,39.39
2019-02-17T00:02:03.731Z,39.02
2019-02-17T00:03:03.123Z,38.98
2019-02-17T00:04:02.696Z,41.89
2019-02-17T00:05:02.930Z,39.99
2019-02-17T00:06:03.209Z,45.01
2019-02-17T00:07:03.172Z,41.06
2019-02-17T00:08:03.477Z,40.28
2019-02-17T00:09:03.017Z,38.28
2019-02-17T00:10:03.841Z,40.54
2019-02-17T00:11:02.980Z,40.28
2019-02-17T00:12:03.701Z,38.87
2019-02-17T00:13:02.903Z,42.32
2019-02-17T00:14:03.268Z,43.11
2019-02-17T00:15:03.148Z,44.15
2019-02-17T00:16:03.417Z,40.01
2019-02-17T00:17:02.983Z,38.29
2019-02-17T00:18:03.339Z,42.81
2019-02-17T00:19:02.634Z,38.41
2019-02-17T00:20:03.196Z,37.35
2019-02-17T00:21:02.990Z,40.02
2019-02-17T00:22:03.393Z,39.98
2019-02-17T00:23:02.773Z,38.01
2019-02-17T00:24:03.349Z,40.58
2019-02-17T00:25:02.806Z,36.77
2019-02-17T00:26:03.365Z,41.45
2019-02-17T00:27:02.727Z,44.14
2019-02-17T00:28:03.330Z,41.33
2019-02-17T00:29:02.777Z,35.3
2019-02-17T00:30:03.446Z,38.99
2019-02-17T00:31:03.000Z,35.25
2019-02-17T00:32:03.143Z,38.79
2019-02-17T00:33:02.912Z,35.57
2019-02-17T00:34:03.008Z,43.33
2019-02-17T00:35:03.338Z,43.33
2019-02-17T00:36:02.841Z,39.32
2019-02-17T00:37:03.637Z,39.32
2019-02-17T00:38:02.750Z,38.16
2019-02-17T00:39:03.451Z,35.42
2019-02-17T00:40:03.271Z,35.42
2019-02-17T00:41:03.525Z,37.67
2019-02-17T00:42:03.117Z,38.92
2019-02-17T00:43:03.412Z,37.8
2019-02-17T00:44:03.767Z,32.75
2019-02-17T00:45:03.527Z,32.75
2019-02-17T00:46:03.208Z,36.71
2019-02-17T00:47:03.543Z,35.21
2019-02-17T00:48:02.680Z,35.75
2019-02-17T00:49:03.426Z,36.29
2019-02-17T00:50:03.670Z,37.19
2019-02-17T00:51:03.356Z,34.86
2019-02-17T00:52:03.430Z,33.36
2019-02-17T00:53:03.232Z,33.08
2019-02-17T00:54:03.441Z,36.15
2019-02-17T00:55:03.739Z,34.36
2019-02-17T00:56:03.205Z,36.05
2019-02-17T00:57:03.632Z,32.55
2019-02-17T00:58:03.060Z,34.48
2019-02-17T00:59:09.549Z,38.51
2019-02-17T01:00:03.145Z,40.45
2019-02-17T01:01:03.095Z,34.93
2019-02-17T01:02:02.763Z,34.79
2019-02-17T01:03:03.221Z,32.47
2019-02-17T01:04:02.504Z,39.07
2019-02-17T01:05:03.186Z,34.07
2019-02-17T01:06:02.669Z,37.25
2019-02-17T01:07:02.918Z,38.48
2019-02-17T01:08:03.586Z,43.67
2019-02-17T01:09:02.979Z,44.58
2019-02-17T01:10:03.476Z,36.71
2019-02-17T01:11:03.329Z,33.47
2019-02-17T01:12:03.342Z,43.68
2019-02-17T01:13:03.596Z,37.36
2019-02-17T01:14:03.131Z,33.55
2019-02-17T01:15:03.851Z,34.27
2019-02-17T01:16:03.060Z,31.28
2019-02-17T01:17:03.691Z,30.75
2019-02-17T01:18:03.060Z,34.43
2019-02-17T01:19:03.593Z,35.03
2019-02-17T01:20:02.967Z,39.58
2019-02-17T01:21:03.546Z,30.46
2019-02-17T01:22:03.545Z,38.08
2019-02-17T01:23:03.247Z,35.12
2019-02-17T01:24:02.868Z,37.03
2019-02-17T01:25:03.177Z,35.54
2019-02-17T01:26:03.615Z,36.85
2019-02-17T01:27:02.855Z,35.81
2019-02-17T01:28:03.201Z,35.81
2019-02-17T01:29:02.801Z,43.84
2019-02-17T01:30:02.756Z,36.06
2019-02-17T01:31:03.393Z,40.82
2019-02-17T01:32:03.620Z,34.7
2019-02-17T01:33:03.059Z,38
2019-02-17T01:34:03.519Z,31.43
2019-02-17T01:35:03.358Z,33.62
2019-02-17T01:36:03.281Z,37.04
2019-02-17T01:37:03.310Z,35.6
2019-02-17T01:38:03.655Z,36.84
2019-02-17T01:39:03.180Z,35.31
2019-02-17T01:40:03.499Z,35.64
2019-02-17T01:41:03.025Z,34.99
2019-02-17T01:42:03.560Z,39.2
2019-02-17T01:43:03.226Z,38.05
2019-02-17T01:44:03.464Z,33.51
2019-02-17T01:45:02.792Z,37.4
2019-02-17T01:46:03.517Z,32.23
2019-02-17T01:47:03.209Z,35.22
2019-02-17T01:48:03.694Z,36.86
2019-02-17T01:49:03.153Z,38.82
2019-02-17T01:50:03.603Z,45.19
2019-02-17T01:51:03.244Z,40.55
2019-02-17T01:52:03.520Z,35.61
2019-02-17T01:53:02.672Z,33.88
2019-02-17T01:54:03.227Z,33.25
2019-02-17T01:55:02.854Z,36.58
2019-02-17T01:56:02.906Z,37.96
2019-02-17T01:57:02.829Z,37.01
2019-02-17T01:58:03.402Z,40.94
2019-02-17T01:59:02.703Z,35.49
2019-02-17T02:00:03.390Z,38.5
2019-02-17T02:01:03.617Z,40.85
2019-02-17T02:02:03.387Z,34.39
2019-02-17T02:03:02.952Z,39.57
2019-02-17T02:04:03.635Z,37.24
2019-02-17T02:05:03.048Z,42.56
2019-02-17T02:06:03.523Z,38.76
2019-02-17T02:07:02.923Z,34.77
2019-02-17T02:08:03.681Z,41.05
2019-02-17T02:09:03.069Z,32.45
2019-02-17T02:10:03.721Z,39.69
2019-02-17T02:11:03.171Z,35.93
2019-02-17T02:12:02.674Z,36.66
2019-02-17T02:13:02.935Z,38.35
2019-02-17T02:14:02.682Z,36.16
2019-02-17T02:15:03.135Z,37.93
2019-02-17T02:16:02.549Z,36.45
2019-02-17T02:17:03.141Z,36.45
2019-02-17T02:18:03.322Z,41.71
2019-02-17T02:19:03.161Z,41.71
2019-02-17T02:20:03.742Z,34.18
2019-02-17T02:21:03.075Z,33.59
2019-02-17T02:22:02.672Z,33.59
2019-02-17T02:23:03.632Z,36.22
2019-02-17T02:24:03.074Z,36.26
2019-02-17T02:25:03.710Z,35.56
2019-02-17T02:26:02.869Z,38.58
2019-02-17T02:27:03.204Z,33.31
2019-02-17T02:28:02.715Z,32.58
2019-02-17T02:29:03.475Z,41.62
2019-02-17T02:30:03.102Z,32.93
2019-02-17T02:31:03.302Z,36.44
2019-02-17T02:32:02.792Z,43.32
2019-02-17T02:33:02.760Z,34.06
2019-02-17T02:34:03.111Z,42.45
2019-02-17T02:35:03.885Z,37.88
2019-02-17T02:36:02.923Z,36.99
2019-02-17T02:37:02.789Z,40.54
2019-02-17T02:38:03.356Z,37.76
2019-02-17T02:39:03.296Z,38.14
2019-02-17T02:40:03.604Z,36.17
2019-02-17T02:41:03.100Z,37.58
2019-02-17T02:42:03.215Z,37.14
2019-02-17T02:43:03.133Z,42.78
2019-02-17T02:44:03.389Z,42.24
2019-02-17T02:45:03.000Z,40.7
2019-02-17T02:46:03.481Z,36.52
2019-02-17T02:47:03.104Z,40.47
2019-02-17T02:48:02.931Z,41.17
2019-02-17T02:49:03.246Z,40.34
2019-02-17T02:50:02.958Z,41.01
2019-02-17T02:51:03.232Z,40.13
2019-02-17T02:52:03.176Z,35.88
2019-02-17T02:53:03.421Z,37.93
2019-02-17T02:54:02.946Z,36.12
2019-02-17T02:55:03.352Z,39.06
2019-02-17T02:56:03.517Z,31.26
2019-02-17T02:57:02.981Z,34.37
2019-02-17T02:58:03.600Z,32.02
2019-02-17T02:59:03.214Z,35.51
2019-02-17T03:00:03.354Z,38.91
2019-02-17T03:01:02.598Z,34.99
2019-02-17T03:02:03.224Z,37.45
2019-02-17T03:03:02.620Z,35.81
2019-02-17T03:04:03.635Z,37.19
2019-02-17T03:05:03.114Z,33.02
2019-02-17T03:06:03.290Z,34.36
2019-02-17T03:07:03.125Z,40.79
2019-02-17T03:08:03.370Z,40.79
2019-02-17T03:09:03.473Z,37.14
2019-02-17T03:10:03.504Z,37.86
2019-02-17T03:11:02.930Z,37.82
2019-02-17T03:12:03.436Z,40.86
2019-02-17T03:13:02.755Z,34.77
2019-02-17T03:14:03.551Z,33.69
2019-02-17T03:15:02.983Z,32.85
2019-02-17T03:16:03.200Z,33.84
2019-02-17T03:17:02.866Z,35.3
2019-02-17T03:18:03.375Z,35.22
2019-02-17T03:19:03.163Z,37.82
2019-02-17T03:20:02.965Z,37.12
2019-02-17T03:21:03.562Z,41.42
2019-02-17T03:22:03.105Z,32.79
2019-02-17T03:23:02.768Z,38.92
2019-02-17T03:24:03.265Z,38.33
2019-02-17T03:25:03.013Z,42.11
2019-02-17T03:26:03.160Z,38.69
2019-02-17T03:27:03.219Z,45.14
2019-02-17T03:28:02.878Z,40.56
2019-02-17T03:29:03.377Z,38.65
2019-02-17T03:30:05.235Z,38.38
2019-02-17T03:31:03.589Z,35.94
2019-02-17T03:32:03.646Z,39.23
2019-02-17T03:33:03.396Z,35.54
2019-02-17T03:34:03.298Z,35.35
2019-02-17T03:35:03.005Z,36.32
2019-02-17T03:36:03.250Z,36.15
2019-02-17T03:37:03.565Z,39.95
2019-02-17T03:38:03.347Z,39.8
2019-02-17T03:39:02.720Z,38.57
2019-02-17T03:40:03.206Z,38.45
2019-02-17T03:41:03.210Z,36.24
2019-02-17T03:42:02.939Z,38.66
2019-02-17T03:43:03.408Z,41.92
2019-02-17T03:44:03.101Z,40.11
2019-02-17T03:45:03.017Z,43.25
2019-02-17T03:46:02.683Z,40.69
2019-02-17T03:47:03.350Z,40.7
2019-02-17T03:48:02.907Z,39.66
2019-02-17T03:49:03.243Z,44.11
2019-02-17T03:50:03.050Z,40.5
2019-02-17T03:51:03.172Z,36.53
2019-02-17T03:52:03.453Z,37.11
2019-02-17T03:53:02.712Z,32.16
2019-02-17T03:54:03.154Z,32.16
2019-02-17T03:55:03.039Z,37.47
2019-02-17T03:56:03.262Z,37.47
2019-02-17T03:57:02.746Z,34.06
2019-02-17T03:58:03.107Z,36.1
2019-02-17T03:59:03.445Z,36.1
2019-02-17T04:00:03.185Z,35.33
2019-02-17T04:01:03.725Z,39.67
2019-02-17T04:02:03.429Z,33.82
2019-02-17T04:03:03.741Z,34.57
2019-02-17T04:04:03.032Z,31.91
2019-02-17T04:05:03.245Z,35.1
2019-02-17T04:06:04.121Z,35.8
2019-02-17T04:07:03.387Z,35.39
2019-02-17T04:08:03.590Z,37.82
2019-02-17T04:09:02.976Z,32.58
2019-02-17T04:10:03.825Z,32.32
2019-02-17T04:11:02.710Z,31.27
2019-02-17T04:12:03.824Z,37.65
2019-02-17T04:13:03.051Z,36.58
2019-02-17T04:14:03.284Z,37.19
2019-02-17T04:15:03.665Z,41.07
2019-02-17T04:16:03.028Z,37.77
2019-02-17T04:17:03.612Z,37.85
2019-02-17T04:18:03.000Z,35.88
2019-02-17T04:19:03.597Z,33.68
2019-02-17T04:20:02.973Z,34.74
2019-02-17T04:21:03.524Z,37.86
2019-02-17T04:22:02.964Z,33.26
2019-02-17T04:23:03.298Z,32.11
2019-02-17T04:24:03.680Z,34.01
2019-02-17T04:25:03.304Z,39.35
2019-02-17T04:26:03.798Z,35.77
2019-02-17T04:27:02.893Z,31.46
2019-02-17T04:28:03.654Z,32.95
2019-02-17T04:29:02.983Z,36.96
2019-02-17T04:30:04.063Z,37.83
2019-02-17T04:31:02.815Z,37.31
2019-02-17T04:32:03.460Z,39.51
2019-02-17T04:33:02.888Z,36.76
2019-02-17T04:34:03.655Z,37.26
2019-02-17T04:35:03.182Z,36.89
2019-02-17T04:36:03.297Z,38.39
2019-02-17T04:37:02.910Z,38.58
2019-02-17T04:38:03.423Z,42.06
2019-02-17T04:39:03.089Z,43.56
2019-02-17T04:40:03.476Z,33.69
2019-02-17T04:41:02.861Z,37.73
2019-02-17T04:42:03.327Z,36.86
2019-02-17T04:43:02.665Z,35.8
2019-02-17T04:44:03.216Z,34.72
2019-02-17T04:45:02.954Z,34.72
2019-02-17T04:46:02.961Z,35.75
2019-02-17T04:47:02.801Z,39.36
2019-02-17T04:48:02.927Z,39.36
2019-02-17T04:49:02.586Z,37.92
2019-02-17T04:50:03.074Z,30.65
2019-02-17T04:51:03.560Z,30.65
2019-02-17T04:52:03.165Z,35.39
2019-02-17T04:53:03.470Z,31.13
2019-02-17T04:54:03.127Z,38.5
2019-02-17T04:55:03.405Z,38.93
2019-02-17T04:56:02.931Z,42.33
2019-02-17T04:57:03.634Z,37.1
2019-02-17T04:58:02.795Z,40.74
2019-02-17T04:59:03.606Z,36.55
2019-02-17T05:00:02.888Z,41.56
2019-02-17T05:01:03.603Z,35.04
2019-02-17T05:02:03.125Z,33.33
2019-02-17T05:03:02.755Z,34.8
2019-02-17T05:04:02.865Z,36.21
2019-02-17T05:05:03.649Z,43.9
2019-02-17T05:06:03.595Z,36.95
2019-02-17T05:07:03.003Z,36.37
2019-02-17T05:08:03.468Z,32.79
2019-02-17T05:09:02.806Z,32.58
2019-02-17T05:10:03.391Z,33.51
2019-02-17T05:11:03.369Z,35.01
2019-02-17T05:12:03.307Z,32.95
2019-02-17T05:13:03.133Z,37.32
2019-02-17T05:14:02.774Z,33.52
2019-02-17T05:15:03.422Z,32.77
2019-02-17T05:16:02.425Z,38.08
2019-02-17T05:17:03.067Z,36.16
2019-02-17T05:18:03.419Z,33.3
2019-02-17T05:19:03.068Z,35.77
2019-02-17T05:20:03.413Z,34.75
2019-02-17T05:21:02.971Z,41.61
2019-02-17T05:22:03.429Z,36.45
2019-02-17T05:23:02.968Z,35.26
2019-02-17T05:24:03.153Z,39.74
2019-02-17T05:25:03.199Z,37.63
2019-02-17T05:26:03.233Z,33.89
2019-02-17T05:27:02.788Z,37.11
2019-02-17T05:28:03.514Z,38.46
2019-02-17T05:29:02.790Z,39.78
2019-02-17T05:30:03.370Z,40.69
2019-02-17T05:31:02.710Z,39.14
2019-02-17T05:32:03.335Z,39.14
2019-02-17T05:33:02.762Z,37.32
2019-02-17T05:34:03.535Z,37.32
2019-02-17T05:35:02.958Z,37.51
2019-02-17T05:36:03.564Z,35.86
2019-02-17T05:37:02.704Z,35.43
2019-02-17T05:38:03.122Z,36.04
2019-02-17T05:39:03.018Z,36.04
2019-02-17T05:40:03.215Z,40.69
2019-02-17T05:41:02.872Z,36.2
2019-02-17T05:42:03.013Z,40.79
2019-02-17T05:43:02.908Z,41.69
2019-02-17T05:44:03.119Z,40.65
2019-02-17T05:45:02.607Z,31.31
2019-02-17T05:46:02.991Z,35.47
2019-02-17T05:47:03.343Z,33.3
2019-02-17T05:48:03.056Z,34.32
2019-02-17T05:49:03.516Z,33.21
2019-02-17T05:50:02.756Z,43.64
2019-02-17T05:51:03.636Z,31.38
2019-02-17T05:52:03.625Z,31.46
2019-02-17T05:53:03.132Z,39.48
2019-02-17T05:54:03.588Z,35.63
2019-02-17T05:55:02.796Z,36.41
2019-02-17T05:56:02.697Z,32.22
2019-02-17T05:57:02.681Z,36.97
2019-02-17T05:58:03.247Z,32.37
2019-02-17T05:59:02.606Z,38.55
2019-02-17T06:00:03.267Z,43.42
2019-02-17T06:01:04.377Z,33.01
2019-02-17T06:02:03.102Z,33.96
2019-02-17T06:03:02.909Z,34.35
2019-02-17T06:04:03.284Z,29.72
2019-02-17T06:05:03.808Z,35.7
2019-02-17T06:06:03.289Z,31.95
2019-02-17T06:07:03.393Z,29.72
2019-02-17T06:08:03.213Z,34.32
2019-02-17T06:09:03.481Z,35.35
2019-02-17T06:10:03.015Z,38.74
2019-02-17T06:11:03.312Z,40.27
2019-02-17T06:12:02.892Z,31.49
2019-02-17T06:13:03.947Z,33.09
2019-02-17T06:14:02.954Z,29.37
2019-02-17T06:15:03.557Z,39.76
2019-02-17T06:16:02.952Z,31.27
2019-02-17T06:17:03.491Z,31.61
2019-02-17T06:18:02.607Z,34.35
2019-02-17T06:19:03.424Z,35.71
2019-02-17T06:20:02.754Z,36.38
2019-02-17T06:21:03.497Z,35.85
2019-02-17T06:22:02.695Z,37.6
2019-02-17T06:23:02.936Z,36.25
2019-02-17T06:24:03.730Z,37.86
2019-02-17T06:25:03.098Z,37.86
2019-02-17T06:26:03.470Z,38.91
2019-02-17T06:27:02.827Z,41.56
2019-02-17T06:28:02.767Z,41.56
2019-02-17T06:29:02.743Z,39.72
2019-02-17T06:30:03.462Z,40.49
2019-02-17T06:31:13.634Z,40.49
2019-02-17T06:32:03.264Z,31.14
2019-02-17T06:33:03.553Z,33.25
2019-02-17T06:34:03.403Z,33.89
2019-02-17T06:35:02.834Z,36.66
2019-02-17T06:36:03.034Z,36.76
2019-02-17T06:37:03.580Z,37.82
2019-02-17T06:38:03.245Z,44
2019-02-17T06:39:03.626Z,40.34
2019-02-17T06:40:03.496Z,37.04
2019-02-17T06:41:02.955Z,30.79
2019-02-17T06:42:03.564Z,32.29
2019-02-17T06:43:02.864Z,34.08
2019-02-17T06:44:03.399Z,31.82
2019-02-17T06:45:03.704Z,31.65
2019-02-17T06:46:03.293Z,42.41
2019-02-17T06:47:03.811Z,34.29
2019-02-17T06:48:03.186Z,38.26
2019-02-17T06:49:03.463Z,39.54
2019-02-17T06:50:03.025Z,34.06
2019-02-17T06:51:03.620Z,31.97
2019-02-17T06:52:03.191Z,33.9
2019-02-17T06:53:02.871Z,39.62
2019-02-17T06:54:02.979Z,36.19
2019-02-17T06:55:03.594Z,30.28
2019-02-17T06:56:03.122Z,40.12
2019-02-17T06:57:03.626Z,34.92
2019-02-17T06:58:02.760Z,36.15
2019-02-17T06:59:03.741Z,31.52
2019-02-17T07:00:02.992Z,35.49
2019-02-17T07:01:03.425Z,33.1
2019-02-17T07:02:02.982Z,34.78
2019-02-17T07:03:03.335Z,34.54
2019-02-17T07:04:02.844Z,33.56
2019-02-17T07:05:03.523Z,32.74
2019-02-17T07:06:02.922Z,30.27
2019-02-17T07:07:03.435Z,36.74
2019-02-17T07:08:02.992Z,36.86
2019-02-17T07:09:04.817Z,44.12
2019-02-17T07:10:03.315Z,36.4
2019-02-17T07:11:03.239Z,97.15
2019-02-17T07:12:03.663Z,97.15
2019-02-17T07:13:03.222Z,34.1
2019-02-17T07:14:03.273Z,34.1
2019-02-17T07:15:02.548Z,33.34
2019-02-17T07:16:03.016Z,28.21
2019-02-17T07:17:03.743Z,36.49
2019-02-17T07:18:02.842Z,38.61
2019-02-17T07:19:02.743Z,42.41
2019-02-17T07:20:03.260Z,39.25
2019-02-17T07:21:02.800Z,38.95
2019-02-17T07:22:03.146Z,44.45
2019-02-17T07:23:02.882Z,43.95
2019-02-17T07:24:03.395Z,42.88
2019-02-17T07:25:02.847Z,38.43
2019-02-17T07:26:03.309Z,38.11
2019-02-17T07:27:03.130Z,48.4
2019-02-17T07:28:03.305Z,48.86
2019-02-17T07:29:02.822Z,45.08
2019-02-17T07:30:03.369Z,42.88
2019-02-17T07:31:02.765Z,45.14
2019-02-17T07:32:03.552Z,40.78
2019-02-17T07:33:03.804Z,38.61
2019-02-17T07:34:03.360Z,37.52
2019-02-17T07:35:02.974Z,43.82
2019-02-17T07:36:03.141Z,42.46
2019-02-17T07:37:03.638Z,41.14
2019-02-17T07:38:02.936Z,39.15
2019-02-17T07:39:03.338Z,45.18
2019-02-17T07:40:02.990Z,41.88
2019-02-17T07:41:03.323Z,42.47
2019-02-17T07:42:02.806Z,43.14
2019-02-17T07:43:03.352Z,42.98
2019-02-17T07:44:02.619Z,47.16
2019-02-17T07:45:03.486Z,45
2019-02-17T07:46:02.553Z,46.73
2019-02-17T07:47:03.965Z,48.58
2019-02-17T07:48:02.947Z,46.51
2019-02-17T07:49:03.955Z,49.1
2019-02-17T07:50:02.851Z,42.75
2019-02-17T07:51:03.403Z,49.22
2019-02-17T07:52:02.982Z,48.75
2019-02-17T07:53:03.146Z,45.08
2019-02-17T07:54:02.805Z,40.04
2019-02-17T07:55:03.419Z,38.99
2019-02-17T07:56:02.802Z,39.28
2019-02-17T07:57:03.350Z,42.41
2019-02-17T07:58:02.769Z,37.46
2019-02-17T07:59:03.187Z,42.18
2019-02-17T08:00:03.000Z,40.74
2019-02-17T08:01:03.388Z,40.23
2019-02-17T08:02:02.732Z,46.91
2019-02-17T08:03:03.460Z,51.86
2019-02-17T08:04:02.810Z,40.14
2019-02-17T08:05:02.926Z,40.14
2019-02-17T08:06:02.707Z,37.92
2019-02-17T08:07:03.136Z,43.75
2019-02-17T08:08:03.504Z,43.75
2019-02-17T08:09:03.285Z,38.96
2019-02-17T08:10:02.908Z,40.05
2019-02-17T08:11:04.146Z,42.35
2019-02-17T08:12:02.764Z,41.76
2019-02-17T08:13:03.276Z,35.96
2019-02-17T08:14:02.973Z,40.2
2019-02-17T08:15:03.531Z,45.46
2019-02-17T08:16:03.211Z,43.51
2019-02-17T08:17:03.365Z,34.85
2019-02-17T08:18:03.143Z,42.36
2019-02-17T08:19:03.563Z,41.83
2019-02-17T08:20:03.419Z,38.64
2019-02-17T08:21:02.968Z,43.46
2019-02-17T08:22:03.671Z,36.11
2019-02-17T08:23:02.948Z,40.4
2019-02-17T08:24:03.247Z,45.18
2019-02-17T08:25:03.790Z,39.38
2019-02-17T08:26:02.926Z,35.19
2019-02-17T08:27:04.650Z,34.29
2019-02-17T08:28:02.763Z,40.71
2019-02-17T08:29:03.308Z,46.39
2019-02-17T08:30:02.802Z,43.09
2019-02-17T08:31:03.109Z,41.49
2019-02-17T08:32:02.937Z,38.04
2019-02-17T08:33:03.436Z,35.75
2019-02-17T08:34:02.993Z,44.32
2019-02-17T08:35:02.989Z,42.41
2019-02-17T08:36:03.547Z,38.19
2019-02-17T08:37:02.850Z,39.96
2019-02-17T08:38:03.617Z,38.36
2019-02-17T08:39:02.728Z,42.81
2019-02-17T08:40:03.109Z,41.26
2019-02-17T08:41:03.382Z,42.44
2019-02-17T08:42:02.957Z,44.21
2019-02-17T08:43:03.519Z,43.56
2019-02-17T08:44:03.252Z,43.21
2019-02-17T08:45:03.264Z,45.38
2019-02-17T08:46:02.952Z,43.79
2019-02-17T08:47:03.448Z,48.3
2019-02-17T08:48:02.944Z,43.18
2019-02-17T08:49:03.036Z,44.36
2019-02-17T08:50:02.928Z,41.8
2019-02-17T08:51:03.348Z,49.95
2019-02-17T08:52:02.884Z,49.57
2019-02-17T08:53:03.646Z,49.81
2019-02-17T08:54:03.264Z,49.81
2019-02-17T08:55:03.503Z,47.4
2019-02-17T08:56:03.174Z,47.4
2019-02-17T08:57:02.747Z,39.39
2019-02-17T08:58:03.104Z,41.81
2019-02-17T08:59:02.863Z,39.94
2019-02-17T09:00:02.919Z,41.41
2019-02-17T09:01:03.057Z,38.7
2019-02-17T09:02:05.829Z,40.28
2019-02-17T09:03:03.090Z,41.48
2019-02-17T09:04:03.675Z,45.17
2019-02-17T09:05:03.116Z,42.92
2019-02-17T09:06:02.681Z,44.84
2019-02-17T09:07:03.374Z,44.44
2019-02-17T09:08:04.083Z,42.74
2019-02-17T09:09:03.011Z,45.49
2019-02-17T09:10:03.713Z,38.28
2019-02-17T09:11:02.912Z,40.18
2019-02-17T09:12:03.224Z,44.84
2019-02-17T09:13:02.939Z,41.04
2019-02-17T09:14:03.636Z,42.46
2019-02-17T09:15:03.119Z,41.99
2019-02-17T09:16:03.290Z,43.28
2019-02-17T09:17:02.785Z,39.99
2019-02-17T09:18:03.390Z,41.53
2019-02-17T09:19:02.614Z,39.72
2019-02-17T09:20:03.118Z,43.45
2019-02-17T09:21:03.399Z,40.67
2019-02-17T09:22:02.836Z,43.46
2019-02-17T09:23:03.269Z,41.09
2019-02-17T09:24:02.825Z,51.75
2019-02-17T09:25:03.272Z,46.85
2019-02-17T09:26:02.657Z,44.88
2019-02-17T09:27:03.102Z,40.59
2019-02-17T09:28:03.534Z,42.81
2019-02-17T09:29:02.932Z,38.24
2019-02-17T09:30:03.479Z,41.54
2019-02-17T09:31:02.735Z,46.58
2019-02-17T09:32:03.266Z,38.03
2019-02-17T09:33:03.720Z,39.52
2019-02-17T09:34:02.976Z,41.67
2019-02-17T09:35:03.540Z,50.41
2019-02-17T09:36:03.234Z,36.74
2019-02-17T09:37:03.657Z,47.08
2019-02-17T09:38:03.106Z,42.78
2019-02-17T09:39:03.550Z,41.93
2019-02-17T09:40:03.132Z,41.93
2019-02-17T09:41:03.459Z,42.63
2019-02-17T09:42:03.454Z,36.84
2019-02-17T09:43:03.090Z,37.01
2019-02-17T09:44:02.882Z,39.26
2019-02-17T09:45:02.717Z,39.26
2019-02-17T09:46:02.814Z,36.07
2019-02-17T09:47:03.515Z,39.31
2019-02-17T09:48:02.599Z,39.31
2019-02-17T09:49:03.271Z,36.52
2019-02-17T09:50:02.818Z,37.72
2019-02-17T09:51:03.132Z,37.45
2019-02-17T09:52:03.443Z,34.06
2019-02-17T09:53:02.876Z,37.24
2019-02-17T09:54:03.364Z,34.83
2019-02-17T09:55:02.910Z,32.91
2019-02-17T09:56:03.579Z,37.32
2019-02-17T09:57:02.893Z,33.96
2019-02-17T09:58:02.761Z,31.49
2019-02-17T09:59:02.911Z,39.17
2019-02-17T10:00:02.911Z,37.13
2019-02-17T10:01:03.186Z,37.14
2019-02-17T10:02:02.806Z,38.08
2019-02-17T10:03:03.312Z,40.79
2019-02-17T10:04:03.193Z,38.27
2019-02-17T10:05:03.159Z,40.35
2019-02-17T10:06:03.022Z,36.54
2019-02-17T10:07:03.576Z,36.02
2019-02-17T10:08:03.191Z,39.05
2019-02-17T10:09:02.952Z,30.42
2019-02-17T10:10:03.232Z,38.81
2019-02-17T10:11:02.805Z,33.3
2019-02-17T10:12:03.009Z,31.06
2019-02-17T10:13:03.556Z,38.67
2019-02-17T10:14:01.903Z,32.66
2019-02-17T10:15:02.859Z,32.28
2019-02-17T10:16:02.971Z,35.54
2019-02-17T10:17:02.790Z,29.22
2019-02-17T10:18:03.034Z,29.84
2019-02-17T10:19:03.432Z,30.15
2019-02-17T10:20:03.002Z,30.08
2019-02-17T10:21:02.990Z,28.49
2019-02-17T10:22:02.793Z,26.21
2019-02-17T10:23:03.087Z,26.72
2019-02-17T10:24:03.450Z,27.05
2019-02-17T10:25:03.003Z,30.04
2019-02-17T10:26:03.511Z,33.41
2019-02-17T10:27:03.071Z,26.25
2019-02-17T10:28:03.321Z,30
2019-02-17T10:29:02.935Z,38.73
2019-02-17T10:30:03.582Z,31.66
2019-02-17T10:31:03.699Z,31.66
2019-02-17T10:32:03.351Z,26.39
2019-02-17T10:33:03.512Z,29.51
2019-02-17T10:34:02.990Z,29.51
2019-02-17T10:35:03.234Z,27.25
2019-02-17T10:36:02.974Z,27.25
2019-02-17T10:37:03.504Z,30.14
2019-02-17T10:38:02.807Z,33.48
2019-02-17T10:39:03.325Z,26.84
2019-02-17T10:40:02.813Z,30.46
2019-02-17T10:41:03.412Z,29.49
2019-02-17T10:42:02.947Z,33.41
2019-02-17T10:43:03.707Z,31.05
2019-02-17T10:44:03.474Z,29.61
2019-02-17T10:45:03.232Z,30.03
2019-02-17T10:46:03.421Z,30.23
2019-02-17T10:47:03.219Z,30.38
2019-02-17T10:48:02.793Z,31.24
2019-02-17T10:49:03.232Z,29.23
2019-02-17T10:50:03.480Z,26.67
2019-02-17T10:51:02.848Z,27.02
2019-02-17T10:52:03.073Z,23.32
2019-02-17T10:53:02.798Z,24.09
2019-02-17T10:54:03.562Z,28.79
2019-02-17T10:55:02.869Z,27.91
2019-02-17T10:56:02.888Z,25.89
2019-02-17T10:57:03.554Z,26.55
2019-02-17T10:58:02.662Z,24.1
2019-02-17T10:59:03.485Z,22.25
2019-02-17T11:00:03.084Z,26.82
2019-02-17T11:01:03.633Z,25.5
2019-02-17T11:02:02.852Z,23.49
2019-02-17T11:03:03.445Z,25.2
2019-02-17T11:04:02.982Z,37.18
2019-02-17T11:05:03.498Z,29.27
2019-02-17T11:06:02.972Z,25.86
2019-02-17T11:07:02.861Z,23.64
2019-02-17T11:08:02.952Z,27.15
2019-02-17T11:09:03.680Z,25.65
2019-02-17T11:10:02.519Z,27.96
2019-02-17T11:11:03.436Z,25.84
2019-02-17T11:12:03.658Z,21.45
2019-02-17T11:13:03.406Z,26.72
2019-02-17T11:14:03.129Z,24.98
2019-02-17T11:15:03.402Z,24.94
2019-02-17T11:16:02.863Z,26.94
2019-02-17T11:17:08.860Z,24.43
2019-02-17T11:18:02.902Z,22.81
2019-02-17T11:19:03.548Z,30.31
2019-02-17T11:20:03.472Z,23.13
2019-02-17T11:21:03.152Z,23.95
2019-02-17T11:22:03.816Z,23.95
2019-02-17T11:23:03.204Z,27.6
2019-02-17T11:24:02.881Z,20.35
2019-02-17T11:25:03.228Z,20.35
2019-02-17T11:26:02.891Z,21.26
2019-02-17T11:27:03.063Z,19.62
2019-02-17T11:28:03.423Z,26.14
2019-02-17T11:29:02.670Z,19.51
2019-02-17T11:30:02.731Z,20.07
2019-02-17T11:31:02.922Z,23.48
2019-02-17T11:32:03.435Z,21.06
2019-02-17T11:33:02.773Z,20.08
2019-02-17T11:34:03.348Z,24.39
2019-02-17T11:35:02.725Z,21.09
2019-02-17T11:36:03.120Z,20.07
2019-02-17T11:37:03.457Z,19.6
2019-02-17T11:38:03.213Z,20.72
2019-02-17T11:39:03.542Z,18.54
2019-02-17T11:40:03.242Z,18.99
2019-02-17T11:41:03.808Z,18.92
2019-02-17T11:42:02.996Z,19.55
2019-02-17T11:43:03.519Z,21.47
2019-02-17T11:44:03.261Z,21.28
2019-02-17T11:45:03.332Z,18.26
2019-02-17T11:46:03.298Z,20.22
2019-02-17T11:47:02.994Z,21.04
2019-02-17T11:48:03.722Z,17.87
2019-02-17T11:49:03.455Z,17.85
2019-02-17T11:50:03.838Z,21.59
2019-02-17T11:51:03.060Z,28.37
2019-02-17T11:52:03.527Z,20.04
2019-02-17T11:53:02.888Z,19.94
2019-02-17T11:54:03.401Z,22.46
2019-02-17T11:55:03.720Z,19.12
2019-02-17T11:56:03.381Z,17.65
2019-02-17T11:57:02.971Z,18.27
2019-02-17T11:58:03.458Z,19.24
2019-02-17T11:59:02.773Z,19.66
2019-02-17T12:00:03.317Z,19.21
2019-02-17T12:01:05.325Z,15.24
2019-02-17T12:02:03.451Z,15.66
2019-02-17T12:03:07.784Z,20.55
2019-02-17T12:04:03.022Z,19.63
2019-02-17T12:05:03.701Z,16.91
2019-02-17T12:06:03.487Z,15.79
2019-02-17T12:07:03.422Z,22.95
2019-02-17T12:08:02.822Z,22.95
2019-02-17T12:09:03.458Z,18.66
2019-02-17T12:10:02.862Z,18.64
2019-02-17T12:11:03.301Z,18.64
2019-02-17T12:12:03.504Z,23.98
2019-02-17T12:13:03.371Z,23.98
2019-02-17T12:14:03.517Z,19.48
2019-02-17T12:15:03.905Z,22.11
2019-02-17T12:16:03.606Z,21.76
2019-02-17T12:17:03.322Z,18.78
2019-02-17T12:18:03.581Z,21.23
2019-02-17T12:19:02.783Z,19.06
2019-02-17T12:20:03.520Z,14.26
2019-02-17T12:21:02.587Z,14.66
2019-02-17T12:22:03.194Z,16.9
2019-02-17T12:23:02.858Z,20.31
2019-02-17T12:24:03.360Z,13.65
2019-02-17T12:25:02.832Z,12.56
2019-02-17T12:26:03.187Z,13.97
2019-02-17T12:27:03.763Z,19.44
2019-02-17T12:28:03.068Z,19.75
2019-02-17T12:29:03.665Z,22.28
2019-02-17T12:30:03.067Z,18.39
2019-02-17T12:31:03.699Z,13.66
2019-02-17T12:32:02.984Z,12.13
2019-02-17T12:33:03.163Z,10.35
2019-02-17T12:34:02.812Z,11.52
2019-02-17T12:35:02.828Z,11.84
2019-02-17T12:36:02.810Z,11.35
2019-02-17T12:37:03.586Z,12.96
2019-02-17T12:38:02.867Z,13.69
2019-02-17T12:39:03.348Z,12.97
2019-02-17T12:40:03.603Z,9.88
2019-02-17T12:41:02.871Z,11.26
2019-02-17T12:42:02.643Z,12.21
2019-02-17T12:43:02.708Z,19.79
2019-02-17T12:44:03.273Z,16.44
2019-02-17T12:45:02.886Z,9.2
2019-02-17T12:46:03.435Z,12.78
2019-02-17T12:47:03.611Z,11.1
2019-02-17T12:48:03.454Z,13.44
2019-02-17T12:49:03.614Z,13.36
2019-02-17T12:50:04.946Z,16.74
2019-02-17T12:51:03.384Z,11.95
2019-02-17T12:52:03.009Z,18.41
2019-02-17T12:53:03.011Z,17.65
2019-02-17T12:54:03.756Z,11.92